Bei Facebook empfehlenBei Twitter postenGoogle plusPinterest

Das Wetter im Erzgebirge am 13.09.2015

Wetter und Klima am 13.09.2015 Holzhau im Erzgebirge (630m ü.NN)
Letzte gemessene Temperatur und Uhrzeit der Messung23:45:00 Uhr14.80 °C
Temperatur (Maximum / Höchstwert) und Uhrzeit der Messung17:15:00 Uhr22.20 °C
Temperatur (Minimum / Tiefstwert) und Uhrzeit der Messung06:00:0011.10 °C
Errechneter Absolutwert der Temperaturschwankungen zwischen Tmin und Tmax des Tages11.10 K
Errechnete Tagesmitteltemperatur16.05729 °C
Gesamt - Niederschlag des Tages (in flüssiger Form)0.00 Liter / m²
Luftdruck (Maximum / Höchstwert) und Zeitpunkt der Messung00:00:00 Uhr1014.10 hPa
Luftdruck (Minimum / Tiefstwert) und Zeitpunkt der Messung23:45:00 Uhr1006.90 hPa
Errechneter Absolutwert der Luftdruckschwankungen des Tages7.20 hPa
Höchste gemessene Windgeschwindigkeit und Uhrzeit der Messung11:00:00 Uhr183.60 km/h
Errechnete Windhäufigkeit in Relation zu den Messwerten des Tages35.41667 %
Niedrigste Windkühle (Windchill) und Zeitpunkt der Messung06:00:00 Uhr11.10 °C
Taupunkt (Maximum / Höchstwert) und Uhrzeit der Messung16:15:00 Uhr15.00 °C
Taupunkt (Minimum / Tiefstwert) und Uhrzeit der Messung06:00:009.40 °C
Anzahl der automatisch eingelesenen Messwerte 96

Detaillierte Wetter- und Klima- Messwerte für den 13.09.2015 in Holzhau im Erzgebirge (630m ü.NN)
ZeitTemperaturLuftdruckRel. LuftfeuchteWindWindrichtungWindchillTaupunktNiederschlag l/m²
23:45:0014.80 °C1006.90 hPa82.00 %11.80 °C 
23:30:0014.90 °C1007.10 hPa81.00 %1.80 km/hONO14.90 °C11.70 °C 
23:15:0014.90 °C1007.10 hPa81.00 %11.70 °C 
23:00:0014.90 °C1007.20 hPa80.00 %4.68 km/hSSO14.90 °C11.50 °C 
22:45:0015.20 °C1007.40 hPa80.00 %3.60 km/hSO15.20 °C11.80 °C 
22:30:0015.30 °C1007.30 hPa80.00 %2.52 km/hO15.30 °C11.90 °C 
22:15:0015.30 °C1007.40 hPa79.00 %11.70 °C 
22:00:0015.40 °C1007.50 hPa78.00 %11.60 °C 
21:45:0015.40 °C1007.60 hPa78.00 %11.60 °C 
21:30:0015.60 °C1007.90 hPa77.00 %3.96 km/hONO15.60 °C11.60 °C 
21:15:0015.80 °C1007.80 hPa76.00 %5.04 km/hSO16.30 °C11.60 °C 
21:00:0015.90 °C1007.80 hPa76.00 %5.40 km/hS16.40 °C11.70 °C 
20:45:0016.00 °C1007.90 hPa75.00 %11.60 °C 
20:30:0016.20 °C1008.00 hPa74.00 %11.60 °C 
20:15:0016.30 °C1007.90 hPa74.00 %5.40 km/hSO16.80 °C11.70 °C 
20:00:0016.40 °C1008.20 hPa74.00 %11.80 °C 
19:45:0016.70 °C1007.90 hPa72.00 %11.60 °C 
19:30:0017.00 °C1008.10 hPa72.00 %11.90 °C 
19:15:0017.30 °C1008.10 hPa71.00 %12.00 °C 
19:00:0017.90 °C1008.40 hPa69.00 %12.10 °C 
18:45:0018.60 °C1008.20 hPa67.00 %3.60 km/hSO18.60 °C12.40 °C 
18:30:0019.40 °C1008.40 hPa66.00 %12.90 °C 
18:15:0020.30 °C1008.60 hPa64.00 %13.30 °C 
18:00:0021.00 °C1008.80 hPa63.00 %4.68 km/hOSO21.00 °C13.70 °C 
17:45:0021.60 °C1008.90 hPa63.00 %2.52 km/hSSO21.60 °C14.30 °C 
17:30:0021.90 °C1009.20 hPa62.00 %14.30 °C 
17:15:0022.20 °C1009.20 hPa62.00 %14.60 °C 
17:00:0022.10 °C1009.30 hPa63.00 %1.80 km/hSSW22.10 °C14.70 °C 
16:45:0021.80 °C1009.70 hPa63.00 %4.68 km/hNNW21.80 °C14.40 °C 
16:30:0021.80 °C1009.60 hPa64.00 %4.32 km/hSSW21.80 °C14.70 °C 
16:15:0021.90 °C1009.80 hPa65.00 %9.36 km/hSSO22.90 °C15.00 °C 
16:00:0021.30 °C1010.10 hPa66.00 %1.80 km/hONO21.30 °C14.70 °C 
15:45:0021.30 °C1010.40 hPa65.00 %8.28 km/hONO22.30 °C14.50 °C 
15:30:0020.90 °C1010.40 hPa66.00 %14.30 °C 
15:15:0020.70 °C1010.60 hPa66.00 %14.10 °C 
15:00:0020.60 °C1010.90 hPa66.00 %10.80 km/hSO21.20 °C14.00 °C 
14:45:0020.40 °C1010.80 hPa67.00 %6.84 km/hSW21.30 °C14.10 °C 
14:30:0020.40 °C1010.70 hPa70.00 %4.68 km/hSSO20.40 °C14.70 °C 
14:15:0020.10 °C1010.80 hPa70.00 %14.50 °C 
14:00:0020.10 °C1011.10 hPa70.00 %14.50 °C 
13:45:0020.30 °C1010.80 hPa70.00 %14.70 °C 
13:30:0020.10 °C1011.20 hPa72.00 %14.90 °C 
13:15:0019.80 °C1011.20 hPa72.00 %14.60 °C 
13:00:0019.30 °C1011.30 hPa74.00 %2.88 km/hSSO19.30 °C14.60 °C 
12:45:0018.90 °C1011.40 hPa74.00 %14.20 °C 
12:30:0019.10 °C1011.50 hPa75.00 %12.60 km/hONO19.30 °C14.60 °C 
12:15:0018.90 °C1011.60 hPa77.00 %14.80 °C 
12:00:0018.30 °C1011.80 hPa78.00 %7.20 km/hSSO18.90 °C14.40 °C 
11:45:0017.90 °C1011.80 hPa79.00 %10.08 km/hS18.10 °C14.20 °C 
11:30:0017.30 °C1011.90 hPa81.00 %9.72 km/hNNO17.40 °C14.00 °C 
11:15:0016.70 °C1012.10 hPa81.00 %2.52 km/hNO16.70 °C13.40 °C 
11:00:0016.40 °C1012.10 hPa82.00 %183.60 km/hSO12.10 °C13.30 °C 
10:45:0016.40 °C1012.30 hPa82.00 %13.30 °C 
10:30:0016.60 °C1012.30 hPa82.00 %6.84 km/hSO16.90 °C13.50 °C 
10:15:0016.70 °C1012.20 hPa83.00 %1.80 km/hSSO16.70 °C13.80 °C 
10:00:0016.90 °C1012.20 hPa85.00 %1.80 km/hSSO16.90 °C14.40 °C 
09:45:0016.40 °C1012.50 hPa87.00 %14.20 °C 
09:30:0015.80 °C1012.40 hPa89.00 %14.00 °C 
09:15:0014.80 °C1012.60 hPa90.00 %5.04 km/hONO15.20 °C13.20 °C 
09:00:0014.30 °C1012.70 hPa91.00 %12.90 °C 
08:45:0013.90 °C1012.70 hPa91.00 %12.50 °C 
08:30:0013.40 °C1012.70 hPa91.00 %2.52 km/hSW13.40 °C12.00 °C 
08:15:0012.90 °C1012.80 hPa91.00 %11.50 °C 
08:00:0012.80 °C1013.20 hPa91.00 %11.40 °C 
07:45:0012.20 °C1013.00 hPa92.00 %10.90 °C 
07:30:0011.40 °C1012.90 hPa91.00 %10.00 °C 
07:15:0011.30 °C1012.90 hPa91.00 %9.90 °C 
07:00:0011.40 °C1013.00 hPa90.00 %9.80 °C 
06:45:0011.60 °C1012.90 hPa91.00 %10.20 °C 
06:30:0011.50 °C1012.70 hPa90.00 %9.90 °C 
06:15:0011.30 °C1012.80 hPa90.00 %9.70 °C 
06:00:0011.10 °C1012.90 hPa89.00 %9.40 °C 
05:45:0011.40 °C1013.00 hPa89.00 %9.70 °C 
05:30:0011.80 °C1012.60 hPa89.00 %10.00 °C 
05:15:0012.10 °C1012.90 hPa89.00 %10.30 °C 
05:00:0012.20 °C1013.00 hPa89.00 %10.40 °C 
04:45:0012.20 °C1012.90 hPa89.00 %10.40 °C 
04:30:0012.20 °C1012.90 hPa88.00 %10.30 °C 
04:15:0012.20 °C1013.10 hPa88.00 %10.30 °C 
04:00:0012.30 °C1013.10 hPa88.00 %10.40 °C 
03:45:0012.30 °C1013.20 hPa87.00 %10.20 °C 
03:30:0012.40 °C1013.30 hPa86.00 %10.10 °C 
03:15:0012.90 °C1013.40 hPa86.00 %10.60 °C 
03:00:0013.20 °C1013.60 hPa86.00 %10.90 °C 
02:45:0013.40 °C1013.70 hPa85.00 %10.90 °C 
02:30:0013.60 °C1013.50 hPa85.00 %11.10 °C 
02:15:0013.90 °C1013.60 hPa85.00 %11.40 °C 
02:00:0013.90 °C1013.60 hPa85.00 %11.40 °C 
01:45:0013.80 °C1013.50 hPa85.00 %11.30 °C 
01:30:0013.60 °C1013.70 hPa85.00 %6.12 km/hOSO13.60 °C11.10 °C 
01:15:0013.50 °C1013.80 hPa85.00 %2.16 km/hSO13.50 °C11.00 °C 
01:00:0013.50 °C1013.70 hPa85.00 %11.00 °C 
00:45:0013.50 °C1013.90 hPa86.00 %11.20 °C 
00:30:0013.60 °C1013.90 hPa86.00 %11.30 °C 
00:15:0013.40 °C1013.80 hPa87.00 %11.30 °C 
00:00:0013.30 °C1014.10 hPa86.00 %11.00 °C 

Permanenter Link zu dieser Seite: Wetter im Erzgebirge am 13.09.2015
Performance-Info: Die Erstellung der Seite / Statistik(en) / Tabelle(n) erforderte 5 Datenbankserver-Abfrage(n) und dauerte 123 Millisekunden. (Dieser Messwert ist von der Gesamt-Auslastung des Servers abhängig.)
Erzgebirge - Wetter | Erzgebirge - Wetter (Mobilgeräte) | Komplette Klimadatenbank